Time;durP1;ratioP1;P1;durP2;ratioP2;P2;SDS_P1;SDS_P2;PMS_P1;PMS_P2;Temp;Humidity;BMP_temperature;BMP_pressure;BME280_temperature;BME280_humidity;BME280_pressure;Samples;Min_cycle;Max_cycle;Signal;HPM_P1;HPM_P2
2022/06/16 00:02:14;;;;;;;1.25;1.02;;;16.50;99.90;;;;;;5048197;28;20459;-72
2022/06/16 00:04:46;;;;;;;0.88;0.88;;;16.40;99.90;;;;;;5045771;28;20915;-72
2022/06/16 00:07:15;;;;;;;0.90;0.90;;;16.20;99.90;;;;;;5046049;28;20427;-71
2022/06/16 00:09:42;;;;;;;0.90;0.90;;;16.10;99.90;;;;;;5052398;28;20515;-72
2022/06/16 00:12:09;;;;;;;0.80;0.80;;;16.00;99.90;;;;;;5052332;28;20436;-72
2022/06/16 00:14:37;;;;;;;1.00;1.00;;;15.90;99.90;;;;;;5053272;28;20437;-72
2022/06/16 00:17:04;;;;;;;1.50;1.00;;;15.90;99.90;;;;;;5040969;28;20529;-72
2022/06/16 00:19:31;;;;;;;0.85;0.85;;;15.90;99.90;;;;;;5043960;28;21248;-72
2022/06/16 00:21:58;;;;;;;0.88;0.88;;;15.90;99.90;;;;;;5044171;28;20429;-72
2022/06/16 00:24:27;;;;;;;0.73;0.73;;;15.90;99.90;;;;;;5044882;28;20433;-72
2022/06/16 00:26:55;;;;;;;0.65;0.65;;;15.90;99.90;;;;;;5033377;28;20438;-72
2022/06/16 00:29:24;;;;;;;1.15;1.05;;;15.80;99.90;;;;;;5035135;28;20431;-72
2022/06/16 00:31:51;;;;;;;0.95;0.80;;;15.80;99.90;;;;;;5053156;28;20433;-72
2022/06/16 00:34:18;;;;;;;1.08;1.08;;;15.80;99.90;;;;;;5051368;28;20795;-72
2022/06/16 00:36:45;;;;;;;0.90;0.90;;;15.80;99.90;;;;;;5050836;28;20844;-71
2022/06/16 00:39:12;;;;;;;0.90;0.90;;;15.70;99.90;;;;;;5051036;28;20456;-72
2022/06/16 00:41:41;;;;;;;0.98;0.88;;;15.60;99.90;;;;;;5039249;28;20479;-71
2022/06/16 00:44:17;;;;;;;1.08;1.08;;;15.60;99.90;;;;;;5048965;28;20425;-72
2022/06/16 00:46:47;;;;;;;0.95;0.88;;;15.60;99.90;;;;;;5054262;28;20431;-72
2022/06/16 00:49:14;;;;;;;0.77;0.77;;;15.50;99.90;;;;;;5072456;28;20432;-72
2022/06/16 00:51:45;;;;;;;0.90;0.90;;;15.50;99.90;;;;;;5059480;28;21178;-72
2022/06/16 00:54:26;;;;;;;0.60;0.60;;;15.40;99.90;;;;;;5051931;28;20771;-71
2022/06/16 00:56:55;;;;;;;0.73;0.73;;;15.40;99.90;;;;;;5049006;28;20931;-72
2022/06/16 00:59:22;;;;;;;0.70;0.70;;;15.40;99.90;;;;;;5045357;28;20524;-72
2022/06/16 01:01:51;;;;;;;0.73;0.73;;;15.30;99.90;;;;;;5052519;28;20433;-71
2022/06/16 01:07:08;;;;;;;0.98;0.98;;;15.20;99.90;;;;;;5049944;28;20524;-72
2022/06/16 01:09:39;;;;;;;1.58;0.85;;;15.20;99.90;;;;;;5036931;28;20434;-72
2022/06/16 01:15:30;;;;;;;0.93;0.93;;;15.20;99.90;;;;;;5051437;28;20464;-71
2022/06/16 01:18:22;;;;;;;0.80;0.80;;;15.20;99.90;;;;;;5051980;28;20780;-72
2022/06/16 01:20:52;;;;;;;1.15;1.10;;;15.20;99.90;;;;;;5030857;28;20514;-72
2022/06/16 01:23:57;;;;;;;1.00;1.00;;;15.20;99.90;;;;;;5048670;28;20456;-71
2022/06/16 01:26:41;;;;;;;0.80;0.80;;;15.20;99.90;;;;;;5051310;28;20436;-71
2022/06/16 01:29:33;;;;;;;0.70;0.70;;;15.20;99.90;;;;;;5050391;28;20525;-72
2022/06/16 01:32:25;;;;;;;1.77;0.93;;;15.20;99.90;;;;;;5039148;28;20429;-72
2022/06/16 01:35:13;;;;;;;0.60;0.60;;;15.20;99.90;;;;;;5049219;28;20436;-72
2022/06/16 01:37:52;;;;;;;0.80;0.80;;;15.10;99.90;;;;;;5048941;28;20425;-72
2022/06/16 01:40:37;;;;;;;0.82;0.82;;;15.10;99.90;;;;;;5047297;28;20440;-71
2022/06/16 01:43:25;;;;;;;0.73;0.73;;;15.10;99.90;;;;;;5034053;28;20425;-72
2022/06/16 01:46:09;;;;;;;1.00;0.80;;;15.00;99.90;;;;;;5050813;28;20555;-72
2022/06/16 01:48:37;;;;;;;0.88;0.88;;;15.00;99.90;;;;;;5043571;28;20437;-72
2022/06/16 01:51:17;;;;;;;0.70;0.70;;;14.90;99.90;;;;;;5046502;28;20926;-72
2022/06/16 01:53:55;;;;;;;1.00;1.00;;;14.80;99.90;;;;;;5049440;28;20523;-72
2022/06/16 01:56:41;;;;;;;0.80;0.80;;;14.80;99.90;;;;;;5051328;28;20441;-72
2022/06/16 01:59:14;;;;;;;0.85;0.85;;;14.70;99.90;;;;;;5050613;28;20524;-72
2022/06/16 02:01:45;;;;;;;0.80;0.80;;;14.60;99.90;;;;;;5051449;28;20459;-72
2022/06/16 02:04:19;;;;;;;0.80;0.80;;;14.50;99.90;;;;;;5048901;28;20476;-73
2022/06/16 02:06:52;;;;;;;0.90;0.90;;;14.60;99.90;;;;;;5040868;28;20516;-72
2022/06/16 02:09:28;;;;;;;0.95;0.95;;;14.60;99.90;;;;;;5048669;28;20479;-73
2022/06/16 02:12:01;;;;;;;0.77;0.77;;;14.60;99.90;;;;;;5041503;28;20988;-72
2022/06/16 02:14:43;;;;;;;0.80;0.80;;;14.60;99.90;;;;;;5069860;28;20507;-72
2022/06/16 02:17:11;;;;;;;0.70;0.70;;;14.60;99.90;;;;;;5031503;28;20777;-73
2022/06/16 02:19:39;;;;;;;0.87;0.80;;;14.70;99.90;;;;;;5037933;28;20425;-72
2022/06/16 02:22:05;;;;;;;0.90;0.90;;;14.80;99.90;;;;;;5047717;28;20836;-72
2022/06/16 02:24:33;;;;;;;1.10;0.97;;;14.80;99.90;;;;;;5051121;28;20432;-74
2022/06/16 02:27:01;;;;;;;1.00;1.00;;;14.80;99.90;;;;;;5048331;28;20429;-72
2022/06/16 02:29:37;;;;;;;1.10;0.82;;;14.90;99.90;;;;;;5047843;28;20425;-72
2022/06/16 02:32:29;;;;;;;0.90;0.90;;;14.90;99.90;;;;;;5047007;28;20847;-73
2022/06/16 02:34:58;;;;;;;0.63;0.63;;;15.00;99.90;;;;;;5033399;28;21046;-73
2022/06/16 02:37:31;;;;;;;1.10;0.80;;;15.00;99.90;;;;;;5045315;28;20521;-72
2022/06/16 02:40:04;;;;;;;0.70;0.70;;;15.10;99.90;;;;;;5048842;28;20425;-73
2022/06/16 02:42:43;;;;;;;0.70;0.70;;;15.10;99.90;;;;;;5048188;28;20470;-73
2022/06/16 02:45:34;;;;;;;0.90;0.90;;;15.10;99.90;;;;;;5045710;28;20430;-72
2022/06/16 02:48:33;;;;;;;0.80;0.80;;;15.20;99.90;;;;;;5048613;28;20423;-73
2022/06/16 02:51:08;;;;;;;1.05;1.05;;;15.10;99.90;;;;;;5035666;28;20976;-72
2022/06/16 02:56:46;;;;;;;0.70;0.70;;;15.00;99.90;;;;;;5046041;28;20451;-71
2022/06/16 02:59:34;;;;;;;1.20;1.10;;;14.90;99.90;;;;;;5045049;28;20518;-73
2022/06/16 03:02:11;;;;;;;1.00;0.90;;;14.70;99.90;;;;;;5032354;28;20500;-72
2022/06/16 03:04:44;;;;;;;0.93;0.93;;;14.60;99.90;;;;;;5030382;28;20431;-73
2022/06/16 03:07:12;;;;;;;0.90;0.90;;;14.60;99.90;;;;;;5046720;28;20456;-73
2022/06/16 03:09:40;;;;;;;1.00;1.00;;;14.60;99.90;;;;;;5048726;28;20521;-73
2022/06/16 03:12:09;;;;;;;0.97;0.97;;;14.60;99.90;;;;;;5049831;28;20429;-73
2022/06/16 03:14:37;;;;;;;2.60;0.90;;;14.50;99.90;;;;;;5047952;28;20540;-73
2022/06/16 03:17:07;;;;;;;0.70;0.70;;;14.50;99.90;;;;;;5041889;28;20426;-73
2022/06/16 03:19:34;;;;;;;0.83;0.83;;;14.50;99.90;;;;;;5048481;28;20508;-72
2022/06/16 03:22:02;;;;;;;0.80;0.80;;;14.50;99.90;;;;;;5047506;28;20437;-73
2022/06/16 03:24:29;;;;;;;0.80;0.80;;;14.50;99.90;;;;;;5048895;28;20429;-73
2022/06/16 03:26:56;;;;;;;0.60;0.60;;;14.50;99.90;;;;;;5049335;28;20429;-73
2022/06/16 03:29:23;;;;;;;0.70;0.70;;;14.50;99.90;;;;;;5043502;28;20858;-73
2022/06/16 03:31:49;;;;;;;0.85;0.85;;;14.60;99.90;;;;;;5030628;28;20481;-73
2022/06/16 03:34:16;;;;;;;0.82;0.82;;;14.60;99.90;;;;;;5031408;28;20434;-72
2022/06/16 03:36:43;;;;;;;0.73;0.73;;;14.60;99.90;;;;;;5039088;28;20429;-73
2022/06/16 03:39:10;;;;;;;0.70;0.70;;;14.70;99.90;;;;;;5047877;28;20444;-73
2022/06/16 03:41:37;;;;;;;0.80;0.80;;;14.80;99.90;;;;;;5050490;28;20433;-73
2022/06/16 03:44:04;;;;;;;0.70;0.70;;;14.90;99.90;;;;;;5050081;28;20429;-73
2022/06/16 03:46:31;;;;;;;0.98;0.88;;;15.00;99.90;;;;;;5047931;28;20487;-73
2022/06/16 03:48:58;;;;;;;0.73;0.68;;;15.10;99.90;;;;;;5040605;28;20424;-72
2022/06/16 03:51:25;;;;;;;0.95;0.95;;;15.10;99.90;;;;;;5054095;28;20864;-72
2022/06/16 03:53:55;;;;;;;0.73;0.73;;;15.10;99.90;;;;;;5047790;28;20496;-72
2022/06/16 03:56:22;;;;;;;0.70;0.70;;;15.10;99.90;;;;;;5050186;28;20425;-73
2022/06/16 03:58:54;;;;;;;0.80;0.80;;;15.10;99.90;;;;;;5049946;28;20804;-72
2022/06/16 04:01:21;;;;;;;0.80;0.80;;;15.20;99.90;;;;;;5038988;28;20439;-73
2022/06/16 04:04:00;;;;;;;0.98;0.98;;;15.30;99.90;;;;;;5047996;28;20460;-73
2022/06/16 04:06:32;;;;;;;0.80;0.80;;;15.30;99.90;;;;;;5057573;28;20445;-73
2022/06/16 04:08:59;;;;;;;1.10;0.90;;;15.20;99.90;;;;;;5050044;28;20516;-72
2022/06/16 04:11:26;;;;;;;0.80;0.80;;;15.20;99.90;;;;;;5047177;28;20508;-73
2022/06/16 04:14:02;;;;;;;0.70;0.70;;;15.30;99.90;;;;;;5049039;28;20464;-73
2022/06/16 04:16:32;;;;;;;0.70;0.70;;;15.30;99.90;;;;;;5049233;28;20431;-73
2022/06/16 04:19:02;;;;;;;0.90;0.90;;;15.40;99.90;;;;;;5050136;28;20444;-73
2022/06/16 04:21:29;;;;;;;0.75;0.75;;;15.40;99.90;;;;;;5048647;28;20651;-74
2022/06/16 04:23:57;;;;;;;0.90;0.90;;;15.50;99.90;;;;;;5048647;28;20425;-73
2022/06/16 04:26:24;;;;;;;1.00;1.00;;;15.60;99.90;;;;;;5048225;28;20429;-73
2022/06/16 04:28:51;;;;;;;1.27;0.80;;;15.70;99.90;;;;;;5050292;28;20429;-73
2022/06/16 04:31:18;;;;;;;0.60;0.60;;;15.80;99.90;;;;;;5049374;28;20457;-73
2022/06/16 04:33:45;;;;;;;0.65;0.65;;;15.90;99.90;;;;;;5048991;28;20436;-73
2022/06/16 04:36:14;;;;;;;0.80;0.80;;;16.00;99.90;;;;;;5049703;28;20941;-73
2022/06/16 04:38:44;;;;;;;0.80;0.80;;;16.10;99.90;;;;;;5050217;28;20437;-73
2022/06/16 04:41:11;;;;;;;0.80;0.80;;;16.20;99.90;;;;;;5049194;28;20459;-74
2022/06/16 04:43:37;;;;;;;1.00;1.00;;;16.30;99.90;;;;;;5049312;28;20520;-74
2022/06/16 04:46:06;;;;;;;0.70;0.70;;;16.30;99.90;;;;;;5069673;28;20423;-74
2022/06/16 04:48:33;;;;;;;0.80;0.80;;;16.40;99.90;;;;;;5043796;28;20454;-73
2022/06/16 04:51:00;;;;;;;0.82;0.80;;;16.40;99.90;;;;;;5053022;28;20463;-73
2022/06/16 04:53:26;;;;;;;0.70;0.70;;;16.50;99.90;;;;;;5052163;28;20429;-73
2022/06/16 04:55:58;;;;;;;0.70;0.70;;;16.60;99.90;;;;;;5072482;28;20514;-73
2022/06/16 04:58:26;;;;;;;0.93;0.93;;;16.70;99.90;;;;;;5053568;28;20439;-72
2022/06/16 05:00:53;;;;;;;1.02;1.02;;;17.00;99.90;;;;;;5046262;28;20777;-72
2022/06/16 05:03:40;;;;;;;0.68;0.68;;;17.30;99.90;;;;;;5051402;28;20420;-72
2022/06/16 05:06:07;;;;;;;0.88;0.88;;;17.70;99.90;;;;;;5051702;28;20949;-72
2022/06/16 05:08:34;;;;;;;0.60;0.60;;;18.20;99.90;;;;;;5052402;28;20429;-72
2022/06/16 05:11:00;;;;;;;0.60;0.60;;;19.90;99.90;;;;;;5050547;28;20453;-72
2022/06/16 05:13:27;;;;;;;0.90;0.90;;;21.90;99.90;;;;;;5047656;28;20509;-72
2022/06/16 05:15:54;;;;;;;0.80;0.80;;;23.70;99.90;;;;;;5042489;28;20425;-72
2022/06/16 05:18:25;;;;;;;0.80;0.80;;;24.90;99.90;;;;;;5054850;28;20417;-74
2022/06/16 05:20:52;;;;;;;0.85;0.85;;;25.10;99.90;;;;;;5050047;28;20435;-73
2022/06/16 05:23:18;;;;;;;0.70;0.70;;;24.80;99.90;;;;;;5052040;28;20436;-72
2022/06/16 05:25:48;;;;;;;0.70;0.70;;;24.40;99.90;;;;;;5048781;28;20442;-72
2022/06/16 05:28:15;;;;;;;0.70;0.70;;;23.90;99.90;;;;;;5050635;28;20512;-72
2022/06/16 05:30:42;;;;;;;0.70;0.70;;;23.50;99.90;;;;;;5045318;28;20422;-72
2022/06/16 05:33:11;;;;;;;0.95;0.95;;;23.30;99.90;;;;;;5058496;28;20542;-71
2022/06/16 05:35:38;;;;;;;0.80;0.80;;;23.40;99.90;;;;;;5060316;28;20506;-71
2022/06/16 05:38:05;;;;;;;0.60;0.60;;;23.50;99.90;;;;;;5054173;28;20472;-72
2022/06/16 05:40:32;;;;;;;0.75;0.75;;;23.70;99.90;;;;;;5049537;28;20548;-71
2022/06/16 05:42:59;;;;;;;0.60;0.60;;;23.70;99.90;;;;;;5043080;28;20461;-72
2022/06/16 05:45:26;;;;;;;0.70;0.70;;;23.60;99.90;;;;;;5040869;28;20433;-72
2022/06/16 05:47:53;;;;;;;0.70;0.70;;;23.50;99.90;;;;;;5044487;28;20441;-72
2022/06/16 05:50:22;;;;;;;0.60;0.60;;;23.40;99.90;;;;;;5040408;28;20439;-71
2022/06/16 05:52:49;;;;;;;0.57;0.57;;;23.40;99.90;;;;;;5045225;28;20433;-72
2022/06/16 05:55:15;;;;;;;0.70;0.70;;;23.30;99.90;;;;;;5046879;28;20425;-73
2022/06/16 05:57:43;;;;;;;0.85;0.80;;;23.40;99.90;;;;;;5049162;28;20439;-71
2022/06/16 06:00:11;;;;;;;0.50;0.50;;;23.60;99.90;;;;;;5045257;28;20433;-72
2022/06/16 06:02:38;;;;;;;0.80;0.80;;;23.60;99.90;;;;;;5036903;28;20439;-73
2022/06/16 06:05:06;;;;;;;0.70;0.70;;;23.70;99.90;;;;;;5047021;28;20440;-72
2022/06/16 06:16:25;;;;;;;0.60;0.60;;;24.40;99.90;;;;;;5050679;28;20429;-72
2022/06/16 06:18:38;;;;;;;1.00;0.70;;;28.50;99.90;;;;;;5038900;28;20441;-72
2022/06/16 06:21:05;;;;;;;0.60;0.60;;;29.70;99.90;;;;;;5044399;28;20429;-71
2022/06/16 06:23:32;;;;;;;0.70;0.70;;;29.70;99.10;;;;;;5044956;28;20441;-71
2022/06/16 06:25:59;;;;;;;0.60;0.60;;;29.60;98.60;;;;;;5049956;28;20429;-71
2022/06/16 06:28:25;;;;;;;0.73;0.73;;;29.30;98.00;;;;;;5038747;28;20437;-71
2022/06/16 06:30:52;;;;;;;0.70;0.70;;;29.60;98.00;;;;;;5040921;28;20447;-71
2022/06/16 06:33:19;;;;;;;0.68;0.68;;;30.00;97.10;;;;;;5038457;28;20438;-71
2022/06/16 06:35:47;;;;;;;0.68;0.68;;;30.60;96.40;;;;;;5041192;28;20915;-71
2022/06/16 06:38:14;;;;;;;0.70;0.70;;;30.70;96.10;;;;;;5034648;28;20434;-72
2022/06/16 06:40:43;;;;;;;0.50;0.50;;;31.50;99.90;;;;;;5043732;28;20550;-72
2022/06/16 06:43:10;;;;;;;0.70;0.70;;;31.50;99.90;;;;;;5040345;28;20440;-71
2022/06/16 06:45:36;;;;;;;0.60;0.60;;;31.80;95.00;;;;;;5042123;28;20429;-71
2022/06/16 06:48:04;;;;;;;0.60;0.60;;;31.40;94.30;;;;;;5042910;28;20439;-73
2022/06/16 06:50:37;;;;;;;0.50;0.50;;;30.80;94.60;;;;;;5035126;28;20433;-72
2022/06/16 06:53:05;;;;;;;0.85;0.85;;;31.00;94.40;;;;;;5038511;28;20466;-71
2022/06/16 06:55:35;;;;;;;0.50;0.50;;;31.30;94.00;;;;;;5049303;28;20429;-70
2022/06/16 06:58:03;;;;;;;0.50;0.50;;;31.90;93.80;;;;;;5046476;28;20432;-71
2022/06/16 07:00:32;;;;;;;0.40;0.40;;;32.40;93.20;;;;;;5046738;28;20573;-71
2022/06/16 07:02:59;;;;;;;0.65;0.65;;;33.30;93.30;;;;;;5044379;28;20436;-71
2022/06/16 07:05:25;;;;;;;0.68;0.68;;;33.30;92.30;;;;;;5038630;28;20776;-72
2022/06/16 07:07:56;;;;;;;0.63;0.60;;;33.50;92.30;;;;;;5037292;28;20448;-71
2022/06/16 07:10:23;;;;;;;0.65;0.65;;;34.40;91.20;;;;;;5045046;28;20934;-73
2022/06/16 07:12:51;;;;;;;0.70;0.70;;;35.40;90.70;;;;;;5041267;28;20607;-71
2022/06/16 07:15:18;;;;;;;0.70;0.70;;;35.50;89.20;;;;;;5040158;28;20425;-71
2022/06/16 07:17:45;;;;;;;0.70;0.70;;;35.40;88.50;;;;;;5043352;28;20447;-70
2022/06/16 07:20:15;;;;;;;0.60;0.60;;;35.10;89.60;;;;;;5043897;28;21202;-71
2022/06/16 07:22:45;;;;;;;0.50;0.50;;;33.70;90.20;;;;;;5044001;28;21014;-71
2022/06/16 07:25:13;;;;;;;0.63;0.63;;;33.50;90.50;;;;;;5043871;28;20516;-70
2022/06/16 07:27:41;;;;;;;0.70;0.70;;;34.70;89.80;;;;;;5067118;28;20543;-71
2022/06/16 07:30:14;;;;;;;0.70;0.68;;;35.20;90.00;;;;;;5043008;28;20443;-74
2022/06/16 07:32:41;;;;;;;0.65;0.65;;;35.70;88.40;;;;;;5042176;28;20479;-74
2022/06/16 07:35:09;;;;;;;0.60;0.60;;;35.70;88.80;;;;;;5042285;28;20439;-68
2022/06/16 07:37:37;;;;;;;0.60;0.60;;;35.70;87.40;;;;;;5040646;28;20436;-72
2022/06/16 07:40:06;;;;;;;0.65;0.65;;;35.70;87.70;;;;;;5044714;28;20425;-68
2022/06/16 07:42:36;;;;;;;0.80;0.80;;;35.40;86.50;;;;;;5041239;28;20439;-68
2022/06/16 07:45:04;;;;;;;0.63;0.63;;;34.60;87.20;;;;;;5051817;28;20440;-70
2022/06/16 07:47:31;;;;;;;0.60;0.60;;;34.20;86.50;;;;;;5041192;28;20465;-67
2022/06/16 07:50:01;;;;;;;0.50;0.50;;;33.20;86.60;;;;;;5034727;28;20439;-66
2022/06/16 07:52:30;;;;;;;0.60;0.60;;;32.60;88.10;;;;;;5042937;28;20439;-70
2022/06/16 07:54:57;;;;;;;0.60;0.60;;;32.40;89.00;;;;;;5044467;28;20460;-70
2022/06/16 07:57:26;;;;;;;0.70;0.70;;;32.20;87.80;;;;;;5037755;28;20513;-69
2022/06/16 07:59:57;;;;;;;0.70;0.70;;;31.80;89.00;;;;;;5042255;28;20958;-69
2022/06/16 08:02:25;;;;;;;0.60;0.60;;;31.90;89.00;;;;;;5040294;28;20532;-70
2022/06/16 08:04:52;;;;;;;0.60;0.60;;;31.60;88.60;;;;;;5046713;28;20436;-69
2022/06/16 08:07:19;;;;;;;0.60;0.60;;;31.70;89.30;;;;;;5060330;28;20463;-67
2022/06/16 08:09:46;;;;;;;0.63;0.63;;;32.10;88.70;;;;;;5054424;28;20424;-71
2022/06/16 08:12:13;;;;;;;0.60;0.60;;;32.50;87.90;;;;;;5049872;28;20541;-70
2022/06/16 08:14:47;;;;;;;0.60;0.60;;;33.00;87.50;;;;;;5047977;28;20440;-70
2022/06/16 08:17:21;;;;;;;0.60;0.60;;;32.80;86.60;;;;;;5044946;28;20437;-67
2022/06/16 08:19:51;;;;;;;0.60;0.60;;;32.00;86.50;;;;;;5061097;28;21113;-70
2022/06/16 08:22:20;;;;;;;0.70;0.70;;;31.20;88.50;;;;;;5047441;28;20490;-69
2022/06/16 08:24:47;;;;;;;1.00;0.60;;;30.70;89.10;;;;;;5047701;28;20429;-66
2022/06/16 08:27:22;;;;;;;0.53;0.53;;;30.50;88.90;;;;;;5052644;28;20471;-67
2022/06/16 08:29:50;;;;;;;0.63;0.63;;;30.70;89.10;;;;;;5056877;28;20427;-67
2022/06/16 08:32:19;;;;;;;0.60;0.60;;;30.60;89.20;;;;;;5052652;28;20464;-68
2022/06/16 08:34:50;;;;;;;0.60;0.60;;;30.50;89.70;;;;;;5043317;28;20425;-69
2022/06/16 08:37:17;;;;;;;0.80;0.80;;;30.40;89.30;;;;;;5051282;28;20511;-67
2022/06/16 08:39:44;;;;;;;0.47;0.47;;;30.60;89.20;;;;;;5050985;28;20435;-68
2022/06/16 08:42:19;;;;;;;0.70;0.70;;;31.10;88.80;;;;;;5052787;28;20521;-68
2022/06/16 08:44:53;;;;;;;0.60;0.60;;;31.20;87.90;;;;;;5057513;28;20927;-69
2022/06/16 08:47:38;;;;;;;0.68;0.68;;;31.10;89.00;;;;;;5055913;28;20973;-67
2022/06/16 08:50:12;;;;;;;0.68;0.68;;;31.00;88.40;;;;;;5050436;28;20425;-70
2022/06/16 08:52:48;;;;;;;0.70;0.70;;;31.40;88.10;;;;;;5060570;28;20431;-69
2022/06/16 08:55:30;;;;;;;0.80;0.80;;;31.60;87.70;;;;;;5046614;28;20447;-66
2022/06/16 08:58:13;;;;;;;0.70;0.70;;;31.80;86.90;;;;;;5048057;28;20429;-67
2022/06/16 09:01:01;;;;;;;0.60;0.60;;;31.90;86.20;;;;;;5048729;28;20894;-69
2022/06/16 09:03:34;;;;;;;0.63;0.63;;;31.60;88.50;;;;;;5058455;28;20441;-71
2022/06/16 09:06:15;;;;;;;0.70;0.70;;;32.00;87.80;;;;;;5050364;28;20482;-69
2022/06/16 09:08:45;;;;;;;0.50;0.50;;;32.40;87.80;;;;;;5051653;28;20436;-67
2022/06/16 09:11:54;;;;;;;0.70;0.70;;;32.80;86.50;;;;;;5053346;28;20575;-68
2022/06/16 09:15:10;;;;;;;0.70;0.70;;;33.20;86.00;;;;;;5054517;28;20992;-70
2022/06/16 09:17:31;;;;;;;0.68;0.68;;;33.60;86.10;;;;;;5047905;28;20432;-68
2022/06/16 09:20:20;;;;;;;0.60;0.60;;;33.60;86.80;;;;;;5048288;28;20986;-70
2022/06/16 09:23:02;;;;;;;0.90;0.90;;;33.40;86.20;;;;;;5047579;28;20476;-68
2022/06/16 09:25:57;;;;;;;0.67;0.67;;;33.90;85.80;;;;;;5051209;28;20910;-73
2022/06/16 09:28:37;;;;;;;0.88;0.88;;;34.20;85.50;;;;;;5049355;28;20429;-71
2022/06/16 09:31:14;;;;;;;0.70;0.70;;;34.80;84.40;;;;;;5044534;28;20520;-67
2022/06/16 09:33:48;;;;;;;0.88;0.88;;;34.20;84.10;;;;;;5048365;28;20435;-67
2022/06/16 09:36:21;;;;;;;0.75;0.75;;;34.40;84.70;;;;;;5041250;28;20425;-68
2022/06/16 09:38:59;;;;;;;0.75;0.75;;;34.70;83.70;;;;;;5045151;28;20437;-71
2022/06/16 09:44:32;;;;;;;1.48;0.90;;;34.20;84.80;;;;;;5050359;28;20949;-66
2022/06/16 09:47:05;;;;;;;0.73;0.70;;;33.60;84.70;;;;;;5052373;28;20512;-70
2022/06/16 09:49:43;;;;;;;0.60;0.60;;;33.20;85.70;;;;;;5050542;28;20564;-68
2022/06/16 09:52:35;;;;;;;0.77;0.77;;;32.50;86.50;;;;;;5063952;28;20420;-68
2022/06/16 09:55:14;;;;;;;0.70;0.70;;;32.50;87.20;;;;;;5045322;28;20429;-69
2022/06/16 09:57:52;;;;;;;0.95;0.60;;;32.30;87.00;;;;;;5043028;28;20433;-68
2022/06/16 10:00:22;;;;;;;0.67;0.67;;;32.20;87.30;;;;;;5044331;28;20516;-67
2022/06/16 10:02:56;;;;;;;0.90;0.80;;;32.50;86.30;;;;;;5055620;28;20431;-67
2022/06/16 10:06:01;;;;;;;0.98;0.70;;;33.00;86.00;;;;;;5056046;28;20459;-69
2022/06/16 10:08:32;;;;;;;0.70;0.70;;;34.10;84.80;;;;;;5062941;28;21052;-68
2022/06/16 10:11:05;;;;;;;0.70;0.70;;;34.50;83.30;;;;;;5035657;28;21021;-68
2022/06/16 10:13:42;;;;;;;0.80;0.80;;;35.30;84.10;;;;;;5035955;28;20460;-69
2022/06/16 10:16:17;;;;;;;0.70;0.70;;;35.80;83.20;;;;;;5040581;28;20470;-68
2022/06/16 10:18:46;;;;;;;0.70;0.70;;;35.20;81.90;;;;;;5043075;28;20429;-70
2022/06/16 10:21:15;;;;;;;0.70;0.60;;;34.20;82.80;;;;;;5043450;28;20441;-68
2022/06/16 10:23:50;;;;;;;0.70;0.70;;;33.90;84.20;;;;;;5039004;28;20461;-67
2022/06/16 10:26:20;;;;;;;0.70;0.70;;;33.60;84.60;;;;;;5048888;28;20428;-68
2022/06/16 10:29:24;;;;;;;0.60;0.60;;;33.90;83.40;;;;;;5042670;28;20437;-68
2022/06/16 10:31:54;;;;;;;0.87;0.87;;;34.00;82.70;;;;;;5040980;28;20436;-68
2022/06/16 10:34:29;;;;;;;0.70;0.70;;;34.00;83.40;;;;;;5038802;28;20515;-66
2022/06/16 10:37:16;;;;;;;0.95;0.77;;;33.70;82.20;;;;;;5040476;28;20435;-71
2022/06/16 10:39:54;;;;;;;0.60;0.60;;;33.10;82.30;;;;;;5048551;28;20431;-73
2022/06/16 10:42:27;;;;;;;0.80;0.80;;;33.00;82.60;;;;;;5047045;28;20433;-69
2022/06/16 10:45:03;;;;;;;0.73;0.73;;;33.10;81.90;;;;;;5045476;28;20548;-70
2022/06/16 10:47:51;;;;;;;0.80;0.80;;;32.60;82.00;;;;;;5054015;28;20475;-68
2022/06/16 10:50:28;;;;;;;0.60;0.60;;;32.50;82.00;;;;;;5042677;28;20479;-71
2022/06/16 10:53:07;;;;;;;0.60;0.60;;;32.10;82.40;;;;;;5040186;28;20439;-70
2022/06/16 10:55:48;;;;;;;0.68;0.68;;;31.90;81.00;;;;;;5039837;28;20436;-67
2022/06/16 10:58:18;;;;;;;0.70;0.70;;;32.20;79.20;;;;;;5044663;28;20463;-68
2022/06/16 11:01:00;;;;;;;0.60;0.60;;;32.00;79.40;;;;;;5047791;28;20439;-67
2022/06/16 11:03:27;;;;;;;0.60;0.60;;;31.90;80.20;;;;;;5046559;28;20468;-69
2022/06/16 11:05:58;;;;;;;0.60;0.60;;;32.10;77.50;;;;;;5046404;28;20436;-67
2022/06/16 11:08:35;;;;;;;0.50;0.50;;;32.50;76.60;;;;;;5046951;28;20437;-66
2022/06/16 11:11:31;;;;;;;0.60;0.60;;;33.10;74.10;;;;;;5045356;28;20516;-67
2022/06/16 11:14:03;;;;;;;0.60;0.60;;;32.80;72.10;;;;;;5046903;28;20503;-67
2022/06/16 11:16:37;;;;;;;0.50;0.50;;;32.40;74.20;;;;;;5041598;28;21214;-67
2022/06/16 11:19:10;;;;;;;0.50;0.50;;;32.50;74.40;;;;;;5047248;28;20452;-67
2022/06/16 11:21:44;;;;;;;0.60;0.60;;;32.60;73.50;;;;;;5045182;28;20433;-67
2022/06/16 11:24:30;;;;;;;0.60;0.60;;;31.60;79.10;;;;;;5041967;28;20440;-67
2022/06/16 11:27:10;;;;;;;0.70;0.70;;;31.20;80.80;;;;;;5045974;28;20444;-67
2022/06/16 11:29:38;;;;;;;0.70;0.70;;;31.40;82.40;;;;;;5038507;28;20437;-67
2022/06/16 11:32:10;;;;;;;0.70;0.70;;;32.00;82.40;;;;;;5031662;28;20442;-66
2022/06/16 11:34:41;;;;;;;0.70;0.70;;;31.60;82.50;;;;;;5039126;28;21204;-69
2022/06/16 11:37:13;;;;;;;0.70;0.70;;;31.10;83.20;;;;;;5044914;28;20425;-67
2022/06/16 11:39:47;;;;;;;0.77;0.77;;;31.00;84.30;;;;;;5041097;28;20460;-66
2022/06/16 11:42:35;;;;;;;0.80;0.80;;;30.90;85.00;;;;;;5049898;28;20457;-68
2022/06/16 11:45:26;;;;;;;0.63;0.63;;;31.40;84.10;;;;;;5046457;28;20441;-68
2022/06/16 11:48:27;;;;;;;0.85;0.85;;;32.00;83.70;;;;;;5032526;28;20860;-67
2022/06/16 11:51:26;;;;;;;0.63;0.63;;;31.90;82.80;;;;;;5040349;28;20515;-67
2022/06/16 11:54:21;;;;;;;0.68;0.68;;;31.90;83.60;;;;;;5052296;28;20460;-66
2022/06/16 11:56:58;;;;;;;0.70;0.70;;;31.60;82.80;;;;;;5041746;28;20461;-68
2022/06/16 11:59:36;;;;;;;0.70;0.70;;;31.80;81.70;;;;;;5047406;28;20928;-69
2022/06/16 12:02:43;;;;;;;0.50;0.50;;;32.00;79.30;;;;;;5038992;28;20438;-66
2022/06/16 12:05:33;;;;;;;0.55;0.55;;;32.20;77.80;;;;;;5041993;28;20520;-67
2022/06/16 12:08:18;;;;;;;0.73;0.50;;;32.20;75.50;;;;;;5034558;28;20436;-67
2022/06/16 12:10:59;;;;;;;0.50;0.50;;;32.10;73.60;;;;;;5049670;28;20463;-70
2022/06/16 12:13:42;;;;;;;0.60;0.60;;;31.80;72.40;;;;;;5052405;28;20436;-67
2022/06/16 12:16:32;;;;;;;0.40;0.40;;;31.40;72.80;;;;;;5046556;28;20433;-66
2022/06/16 12:19:15;;;;;;;0.50;0.50;;;31.60;74.20;;;;;;5044568;28;20448;-71
2022/06/16 12:21:55;;;;;;;0.60;0.60;;;32.30;75.00;;;;;;5047781;28;20515;-68
2022/06/16 12:24:26;;;;;;;0.57;0.57;;;32.30;74.60;;;;;;5044978;28;20429;-67
2022/06/16 12:27:02;;;;;;;0.60;0.60;;;32.00;75.60;;;;;;5044674;28;20602;-66
2022/06/16 12:29:36;;;;;;;0.50;0.50;;;32.00;75.00;;;;;;5054742;28;20840;-66
2022/06/16 12:32:24;;;;;;;0.60;0.60;;;31.90;75.00;;;;;;5044791;28;20524;-67
2022/06/16 12:35:10;;;;;;;0.50;0.50;;;31.90;75.80;;;;;;5044356;28;20440;-66
2022/06/16 12:38:11;;;;;;;0.50;0.50;;;31.50;72.70;;;;;;5037798;28;20788;-69
2022/06/16 12:40:54;;;;;;;0.40;0.40;;;31.60;73.60;;;;;;5043009;28;20859;-67
2022/06/16 12:43:29;;;;;;;0.40;0.40;;;31.70;74.50;;;;;;5037746;28;20462;-70
2022/06/16 12:46:03;;;;;;;0.47;0.47;;;31.90;74.90;;;;;;5044559;28;20950;-66
2022/06/16 12:49:19;;;;;;;0.40;0.40;;;31.90;74.80;;;;;;5046290;28;20421;-68
2022/06/16 12:51:56;;;;;;;0.60;0.52;;;31.70;73.70;;;;;;5011243;28;20425;-67
2022/06/16 12:54:30;;;;;;;0.50;0.50;;;31.50;74.40;;;;;;5007723;28;20527;-67
2022/06/16 12:57:04;;;;;;;0.47;0.47;;;31.10;75.70;;;;;;5006675;28;21068;-69
2022/06/16 12:59:36;;;;;;;0.50;0.50;;;30.40;76.80;;;;;;5013511;28;20435;-65
2022/06/16 13:02:06;;;;;;;0.40;0.40;;;30.60;77.80;;;;;;5008180;28;20455;-66
2022/06/16 13:04:36;;;;;;;0.85;0.52;;;30.70;77.30;;;;;;5007750;28;20442;-71
2022/06/16 13:07:10;;;;;;;0.47;0.47;;;31.00;77.50;;;;;;5021413;28;21071;-69
2022/06/16 13:09:38;;;;;;;0.60;0.60;;;31.00;77.00;;;;;;4993081;28;20442;-66
2022/06/16 13:12:12;;;;;;;0.40;0.40;;;30.80;76.90;;;;;;4998027;28;20439;-67
2022/06/16 13:15:18;;;;;;;0.50;0.50;;;30.80;77.30;;;;;;5016401;28;20443;-68
2022/06/16 13:18:13;;;;;;;0.50;0.50;;;30.70;78.20;;;;;;4959774;28;20484;-66
2022/06/16 13:20:43;;;;;;;0.52;0.52;;;30.50;77.80;;;;;;4944593;28;20460;-66
2022/06/16 13:23:16;;;;;;;0.50;0.50;;;30.70;77.60;;;;;;4947439;28;20465;-66
2022/06/16 13:25:53;;;;;;;0.40;0.40;;;31.00;78.20;;;;;;4946663;28;20543;-69
2022/06/16 13:28:39;;;;;;;0.40;0.40;;;31.00;77.00;;;;;;4967175;28;20436;-69
2022/06/16 13:31:46;;;;;;;0.80;0.50;;;30.90;74.50;;;;;;4973620;28;20479;-67
2022/06/16 13:34:19;;;;;;;0.47;0.47;;;31.00;74.00;;;;;;4976826;28;20439;-67
2022/06/16 13:36:52;;;;;;;0.47;0.47;;;31.00;74.00;;;;;;4979020;28;20436;-66
2022/06/16 13:39:52;;;;;;;0.60;0.60;;;30.90;72.80;;;;;;4958690;28;20442;-69
2022/06/16 13:42:51;;;;;;;0.47;0.47;;;31.40;74.90;;;;;;4975886;28;21065;-70
2022/06/16 13:45:30;;;;;;;0.60;0.60;;;32.20;73.10;;;;;;4966972;28;20636;-70